Time;durP1;ratioP1;P1;durP2;ratioP2;P2;SDS_P1;SDS_P2;PMS_P1;PMS_P2;Temp;Humidity;BMP_temperature;BMP_pressure;BME280_temperature;BME280_humidity;BME280_pressure;Samples;Min_cycle;Max_cycle;Signal;HPM_P1;HPM_P2
2023/11/05 14:50:10;;;;;;;53.15;24.88;;;11.10;99.90;;;;;;5164120;27;20386;-89
2023/11/05 14:52:35;;;;;;;44.15;19.58;;;12.00;99.90;;;;;;5130473;28;20036;-89
2023/11/05 14:55:01;;;;;;;37.70;19.35;;;12.00;99.90;;;;;;5129063;28;20046;-88
2023/11/05 14:57:27;;;;;;;26.70;15.73;;;12.10;99.90;;;;;;5104416;28;20016;-88
2023/11/05 14:59:53;;;;;;;50.17;28.95;;;12.10;99.90;;;;;;5138866;28;20035;-89
2023/11/05 15:02:18;;;;;;;45.08;27.42;;;12.20;99.90;;;;;;5108269;28;20092;-88
2023/11/05 15:04:45;;;;;;;28.95;20.08;;;12.20;99.90;;;;;;5105996;28;20046;-88
2023/11/05 15:07:16;;;;;;;16.48;10.05;;;12.20;99.90;;;;;;5089316;28;20027;-88
2023/11/05 15:10:00;;;;;;;13.38;7.18;;;12.30;99.90;;;;;;5091278;28;20028;-88
2023/11/05 15:12:27;;;;;;;8.25;5.00;;;12.30;99.90;;;;;;5124551;28;20024;-87
2023/11/05 15:14:54;;;;;;;9.05;6.93;;;12.30;99.90;;;;;;5108034;28;20020;-88
2023/11/05 15:17:24;;;;;;;7.68;4.75;;;12.30;99.90;;;;;;5128453;28;20042;-88
2023/11/05 15:19:51;;;;;;;7.95;4.78;;;12.30;99.90;;;;;;5106112;28;20016;-89
2023/11/05 15:22:18;;;;;;;5.95;3.65;;;12.30;99.90;;;;;;5077202;28;20054;-90
2023/11/05 15:24:44;;;;;;;5.07;2.80;;;12.30;99.90;;;;;;5095080;28;21099;-89
2023/11/05 15:27:29;;;;;;;3.70;2.30;;;12.30;99.90;;;;;;5138650;28;20016;-89
2023/11/05 15:33:53;;;;;;;8.25;6.15;;;12.40;99.90;;;;;;5118093;28;20100;-89
2023/11/05 15:36:22;;;;;;;10.32;7.38;;;12.40;99.90;;;;;;5114745;28;20028;-91
2023/11/05 15:39:17;;;;;;;12.90;7.95;;;12.40;99.90;;;;;;5120532;28;20054;-90
2023/11/05 15:42:12;;;;;;;15.65;11.70;;;12.30;99.90;;;;;;5018162;28;20042;-91
2023/11/05 15:44:39;;;;;;;11.15;6.90;;;12.30;99.90;;;;;;5076859;28;20104;-88
2023/11/05 15:47:21;;;;;;;10.10;7.10;;;12.40;99.90;;;;;;5089908;28;20028;-90
2023/11/05 15:49:50;;;;;;;10.25;7.97;;;12.30;99.90;;;;;;5115548;28;20064;-91
2023/11/05 15:52:35;;;;;;;11.65;7.40;;;12.30;99.90;;;;;;5094406;28;20028;-91
2023/11/05 15:55:07;;;;;;;9.30;6.63;;;12.30;99.90;;;;;;5104570;28;20059;-90
2023/11/05 15:57:39;;;;;;;8.23;5.00;;;12.30;99.90;;;;;;5079305;28;20133;-91
2023/11/05 16:00:13;;;;;;;9.43;6.53;;;12.30;99.90;;;;;;5096455;28;20381;-90
2023/11/05 16:02:50;;;;;;;8.93;3.67;;;12.30;99.90;;;;;;5087181;28;20016;-90
2023/11/05 16:05:25;;;;;;;5.50;3.00;;;12.30;99.90;;;;;;5103590;28;20069;-89
2023/11/05 16:07:53;;;;;;;6.05;2.50;;;12.30;99.90;;;;;;5098423;28;20633;-88
2023/11/05 16:10:46;;;;;;;4.72;1.95;;;12.30;99.90;;;;;;5072888;28;20036;-90
2023/11/05 16:13:12;;;;;;;4.78;2.10;;;12.30;99.90;;;;;;5110411;28;20042;-89
2023/11/05 16:16:32;;;;;;;3.75;1.80;;;12.20;99.90;;;;;;5090168;28;20020;-90
2023/11/05 16:18:58;;;;;;;6.55;2.67;;;12.20;99.90;;;;;;5061216;28;20040;-90
2023/11/05 16:21:25;;;;;;;4.53;1.77;;;12.20;99.90;;;;;;5075447;28;20375;-88
2023/11/05 16:23:51;;;;;;;6.55;2.38;;;12.20;99.90;;;;;;5065092;28;20024;-87
2023/11/05 17:09:12;;;;;;;5.07;2.35;;;12.20;99.90;;;;;;5046760;28;20044;-89
2023/11/05 17:12:20;;;;;;;4.65;2.28;;;12.30;99.90;;;;;;5016880;28;20041;-89
2023/11/05 18:01:54;;;;;;;;;;;12.20;99.90;;;;;;5043471;28;20053;-89
2023/11/05 18:05:23;;;;;;;3.92;1.40;;;12.20;99.90;;;;;;4992527;28;19913;-90
2023/11/05 18:08:54;;;;;;;1.58;1.20;;;12.10;99.90;;;;;;5019782;28;20041;-88
2023/11/05 18:11:28;;;;;;;3.78;1.70;;;12.10;99.90;;;;;;5023368;28;20040;-89
2023/11/05 18:14:29;;;;;;;4.70;2.20;;;12.10;99.90;;;;;;5019304;28;20499;-90
2023/11/05 18:17:22;;;;;;;10.10;6.45;;;12.00;99.90;;;;;;5026655;28;20097;-89
2023/11/05 18:26:42;;;;;;;2.88;1.35;;;11.90;99.90;;;;;;5020571;28;20117;-88
2023/11/05 18:29:08;;;;;;;3.95;1.88;;;11.90;99.90;;;;;;5020416;28;20042;-86
2023/11/05 18:31:46;;;;;;;3.05;1.60;;;11.90;99.90;;;;;;5020648;28;20060;-88
2023/11/05 18:35:04;;;;;;;2.08;1.30;;;11.90;99.90;;;;;;5021711;28;20038;-88
2023/11/05 18:37:51;;;;;;;2.67;1.63;;;11.80;99.90;;;;;;4993643;28;20036;-89
2023/11/05 18:40:41;;;;;;;4.35;1.27;;;11.80;99.90;;;;;;5006546;28;20068;-89
2023/11/05 19:19:59;;;;;;;4.82;1.98;;;11.50;99.90;;;;;;5108949;23;19936;-86
2023/11/05 19:25:40;;;;;;;2.97;1.83;;;11.50;99.90;;;;;;5079583;28;20104;-86
2023/11/05 19:28:09;;;;;;;5.18;3.47;;;11.40;99.90;;;;;;5068629;28;20056;-87
2023/11/05 19:30:37;;;;;;;13.00;11.68;;;11.40;99.90;;;;;;5071158;28;20093;-87
2023/11/05 19:33:04;;;;;;;5.85;4.25;;;11.50;99.90;;;;;;5068983;28;20025;-87
2023/11/05 19:35:30;;;;;;;4.45;3.55;;;11.50;99.90;;;;;;5065409;23;20049;-88
2023/11/05 19:37:59;;;;;;;6.05;4.50;;;11.50;99.90;;;;;;5027422;28;20028;-87
2023/11/05 19:40:37;;;;;;;7.47;3.58;;;11.50;99.90;;;;;;5030620;28;20037;-87
2023/11/05 20:20:04;;;;;;;2.33;1.20;;;11.50;99.90;;;;;;4970860;22;20037;-87
2023/11/05 21:27:20;;;;;;;4.82;2.00;;;10.90;99.90;;;;;;4986368;28;20114;-85
2023/11/05 21:29:46;;;;;;;3.42;1.60;;;11.00;99.90;;;;;;4982857;28;20145;-88
2023/11/05 21:38:07;;;;;;;1.95;1.58;;;10.90;99.90;;;;;;5049562;28;20076;-90
2023/11/05 21:40:33;;;;;;;2.63;1.52;;;10.90;99.90;;;;;;5042173;28;20096;-89
2023/11/05 21:42:58;;;;;;;4.38;1.60;;;10.90;99.90;;;;;;5028695;28;20017;-91
2023/11/05 21:45:30;;;;;;;1.77;1.40;;;10.90;99.90;;;;;;5029011;28;20320;-89
2023/11/05 21:47:56;;;;;;;2.75;1.30;;;11.00;99.90;;;;;;5030331;28;20390;-88
2023/11/05 21:50:24;;;;;;;2.92;1.60;;;11.00;99.90;;;;;;5028224;28;20055;-89
2023/11/05 21:52:51;;;;;;;2.10;1.40;;;11.00;99.90;;;;;;5027695;28;20511;-91
2023/11/05 21:55:17;;;;;;;2.97;1.52;;;11.10;99.90;;;;;;5027772;28;21247;-88
2023/11/05 21:57:42;;;;;;;1.50;1.20;;;11.10;99.90;;;;;;5028743;28;20034;-89
2023/11/05 22:00:10;;;;;;;2.58;1.40;;;11.10;99.90;;;;;;5028313;28;20029;-88
2023/11/05 22:02:35;;;;;;;2.58;1.45;;;11.10;99.90;;;;;;5028211;28;20393;-88
2023/11/05 22:05:01;;;;;;;1.98;1.17;;;11.10;99.90;;;;;;5026412;28;20029;-88
2023/11/05 22:07:26;;;;;;;2.53;1.20;;;11.10;99.90;;;;;;5029202;28;20041;-90
2023/11/05 22:09:52;;;;;;;1.63;1.17;;;11.10;99.90;;;;;;5027305;28;20048;-90
2023/11/05 22:12:17;;;;;;;1.98;1.20;;;11.00;99.90;;;;;;5028287;28;20052;-91
2023/11/05 22:14:43;;;;;;;1.55;1.10;;;11.00;99.90;;;;;;5029457;28;20076;-89
2023/11/05 22:17:10;;;;;;;1.92;1.13;;;11.00;99.90;;;;;;5029610;28;20076;-89
2023/11/05 22:19:36;;;;;;;1.27;1.10;;;11.00;99.90;;;;;;5028274;28;20072;-90
2023/11/05 22:22:01;;;;;;;2.03;1.10;;;11.00;99.90;;;;;;5035406;28;20034;-89
2023/11/05 22:24:27;;;;;;;2.35;1.60;;;11.00;99.90;;;;;;5028595;28;20056;-90
2023/11/05 22:26:53;;;;;;;1.98;1.10;;;11.00;99.90;;;;;;5025951;28;20025;-89
2023/11/05 22:29:19;;;;;;;1.10;1.00;;;11.00;99.90;;;;;;5026297;28;20045;-89
2023/11/05 22:31:44;;;;;;;1.05;1.05;;;10.90;99.90;;;;;;5027055;28;20087;-89
2023/11/05 22:34:10;;;;;;;1.92;1.25;;;10.90;99.90;;;;;;5027197;28;20029;-89
2023/11/05 22:36:35;;;;;;;1.30;1.20;;;10.80;99.90;;;;;;5024732;28;20105;-89
2023/11/05 22:39:04;;;;;;;1.42;1.33;;;10.80;99.90;;;;;;5026047;28;20029;-89
2023/11/05 22:41:33;;;;;;;1.48;1.38;;;10.80;99.90;;;;;;5025157;28;20641;-90
2023/11/05 22:43:59;;;;;;;1.60;1.50;;;10.80;99.90;;;;;;5027915;28;20160;-91
2023/11/05 22:46:25;;;;;;;3.60;1.73;;;10.80;99.90;;;;;;5024980;28;20552;-92
2023/11/05 22:48:50;;;;;;;3.03;2.10;;;10.70;99.90;;;;;;5025088;28;20528;-90
2023/11/05 22:51:17;;;;;;;2.88;1.75;;;10.70;99.90;;;;;;5027762;28;20071;-89
2023/11/05 22:53:44;;;;;;;2.83;1.60;;;10.70;99.90;;;;;;5023150;28;20717;-91
2023/11/05 22:56:10;;;;;;;3.78;1.98;;;10.70;99.90;;;;;;5042176;28;20021;-90
2023/11/05 22:58:37;;;;;;;2.25;1.80;;;10.70;99.90;;;;;;5027496;28;20026;-91
2023/11/05 23:01:03;;;;;;;4.45;1.90;;;10.70;99.90;;;;;;5023806;28;20025;-85
2023/11/05 23:03:40;;;;;;;4.65;2.13;;;10.70;99.90;;;;;;5030238;28;20128;-92
2023/11/05 23:06:06;;;;;;;3.13;2.33;;;10.70;99.90;;;;;;5030196;28;20022;-92
2023/11/05 23:08:32;;;;;;;3.42;2.30;;;10.60;99.90;;;;;;5029625;28;20136;-92
2023/11/05 23:10:58;;;;;;;3.40;2.10;;;10.60;99.90;;;;;;5033309;28;20088;-90
2023/11/05 23:13:24;;;;;;;5.63;2.20;;;10.60;99.90;;;;;;5028816;28;20022;-89
2023/11/05 23:15:50;;;;;;;3.05;1.70;;;10.60;99.90;;;;;;5030520;28;20033;-89
2023/11/05 23:18:15;;;;;;;3.30;1.95;;;10.60;99.90;;;;;;5032167;28;20031;-89
2023/11/05 23:20:42;;;;;;;2.70;1.70;;;10.60;99.90;;;;;;5031064;28;20091;-90
2023/11/05 23:23:07;;;;;;;3.50;1.50;;;10.60;99.90;;;;;;5029916;28;20928;-90
2023/11/05 23:25:33;;;;;;;2.42;1.50;;;10.60;99.90;;;;;;5036580;28;20195;-91
2023/11/05 23:27:59;;;;;;;3.92;1.92;;;10.60;99.90;;;;;;5031449;28;20068;-90
2023/11/05 23:30:25;;;;;;;2.88;1.60;;;10.60;99.90;;;;;;5032875;28;20080;-90
2023/11/05 23:32:51;;;;;;;3.80;1.60;;;10.70;99.90;;;;;;5032569;28;20029;-90
2023/11/05 23:35:16;;;;;;;3.55;1.70;;;10.70;99.90;;;;;;5030768;28;20042;-90
2023/11/05 23:37:42;;;;;;;3.80;1.95;;;10.70;99.90;;;;;;5035671;28;20040;-89
2023/11/05 23:40:08;;;;;;;4.03;1.70;;;10.70;99.90;;;;;;5029842;28;20025;-87
2023/11/05 23:42:35;;;;;;;4.80;1.60;;;10.70;99.90;;;;;;5028047;28;20037;-87
2023/11/05 23:45:03;;;;;;;5.20;1.67;;;10.80;99.90;;;;;;5027435;28;20018;-88
2023/11/05 23:47:28;;;;;;;3.05;1.60;;;10.80;99.90;;;;;;5025785;28;20039;-87
2023/11/05 23:49:54;;;;;;;5.57;1.80;;;10.80;99.90;;;;;;5029303;28;20045;-87
2023/11/05 23:52:20;;;;;;;3.75;1.73;;;10.80;99.90;;;;;;5028262;28;20010;-87
2023/11/05 23:54:46;;;;;;;4.30;1.55;;;10.80;99.90;;;;;;5026132;28;20449;-89
2023/11/05 23:57:12;;;;;;;2.35;1.35;;;10.80;99.90;;;;;;5030427;28;20022;-87
2023/11/05 23:59:38;;;;;;;3.10;1.42;;;10.80;99.90;;;;;;5025523;28;20492;-88
